createdAt,value
2018-08-20T00:00:59.667Z,18.50
2018-08-20T00:03:28.731Z,18.40
2018-08-20T00:05:57.789Z,18.51
2018-08-20T00:08:26.857Z,18.58
2018-08-20T00:10:55.912Z,18.61
2018-08-20T00:13:25.941Z,18.72
2018-08-20T00:15:55.031Z,18.71
2018-08-20T00:18:24.081Z,18.74
2018-08-20T00:20:55.063Z,18.78
2018-08-20T00:23:25.012Z,18.81
2018-08-20T00:25:54.074Z,18.82
2018-08-20T00:30:59.409Z,18.78
2018-08-20T00:33:28.473Z,18.73
2018-08-20T00:38:33.321Z,18.68
2018-08-20T00:41:02.409Z,18.64
2018-08-20T00:43:31.467Z,18.61
2018-08-20T00:46:01.595Z,18.62
2018-08-20T00:51:06.542Z,18.61
2018-08-20T00:53:35.603Z,18.53
2018-08-20T00:58:41.445Z,18.51
2018-08-20T01:01:10.503Z,18.53
2018-08-20T01:03:39.550Z,18.52
2018-08-20T01:06:08.618Z,18.56
2018-08-20T01:08:37.674Z,18.60
2018-08-20T01:13:42.436Z,18.69
2018-08-20T01:16:11.502Z,18.64
2018-08-20T01:18:40.625Z,18.65
2018-08-20T01:21:09.715Z,18.68
2018-08-20T01:23:38.795Z,18.64
2018-08-20T01:26:07.845Z,18.63
2018-08-20T01:28:36.971Z,18.67
2018-08-20T01:31:07.012Z,18.71
2018-08-20T01:33:36.074Z,18.72
2018-08-20T01:36:05.186Z,18.72
2018-08-20T01:38:34.243Z,18.78
2018-08-20T01:41:03.305Z,18.74
2018-08-20T01:43:32.482Z,18.74
2018-08-20T01:46:01.529Z,18.68
2018-08-20T01:48:30.699Z,18.69
2018-08-20T01:53:35.521Z,18.64
2018-08-20T01:56:04.591Z,18.67
2018-08-20T02:03:45.316Z,18.65
2018-08-20T02:06:14.439Z,18.60
2018-08-20T02:08:43.487Z,18.50
2018-08-20T02:14:08.479Z,18.44
2018-08-20T02:16:38.511Z,18.44
2018-08-20T02:19:07.569Z,18.42
2018-08-20T02:21:36.745Z,18.40
2018-08-20T02:26:42.573Z,18.45
2018-08-20T02:29:12.601Z,18.26
2018-08-20T02:31:42.626Z,18.13
2018-08-20T02:34:11.678Z,18.13
2018-08-20T02:36:40.737Z,18.14
2018-08-20T02:41:45.645Z,18.22
2018-08-20T02:44:16.705Z,18.16
2018-08-20T02:49:21.546Z,18.14
2018-08-20T02:51:51.918Z,18.20
2018-08-20T02:54:20.989Z,18.18
2018-08-20T02:56:50.037Z,18.08
2018-08-20T02:59:19.099Z,17.97
2018-08-20T03:01:49.104Z,17.85
2018-08-20T03:04:18.173Z,17.82
2018-08-20T03:06:47.257Z,17.85
2018-08-20T03:09:16.337Z,17.86
2018-08-20T03:11:45.399Z,17.84
2018-08-20T03:14:14.585Z,17.82
2018-08-20T03:16:43.640Z,17.78
2018-08-20T03:21:48.479Z,17.84
2018-08-20T03:24:17.740Z,17.96
2018-08-20T03:26:46.772Z,17.99
2018-08-20T03:29:15.844Z,17.99
2018-08-20T03:34:20.640Z,17.90
2018-08-20T03:36:49.828Z,17.89
2018-08-20T03:39:18.878Z,17.79
2018-08-20T03:41:47.947Z,17.75
2018-08-20T03:44:17.313Z,17.77
2018-08-20T03:46:46.378Z,17.75
2018-08-20T03:49:15.425Z,17.71
2018-08-20T03:51:45.485Z,17.79
2018-08-20T03:54:15.437Z,17.85
2018-08-20T03:59:20.227Z,17.68
2018-08-20T04:01:50.526Z,17.74
2018-08-20T04:04:20.461Z,17.69
2018-08-20T04:06:49.514Z,17.70
2018-08-20T04:09:18.863Z,17.66
2018-08-20T04:11:47.918Z,17.64
2018-08-20T04:14:17.955Z,17.61
2018-08-20T04:16:47.021Z,17.64
2018-08-20T04:19:16.085Z,17.65
2018-08-20T04:21:45.142Z,17.74
2018-08-20T04:24:14.215Z,17.71
2018-08-20T04:26:43.280Z,17.65
2018-08-20T04:29:12.360Z,17.64
2018-08-20T04:34:17.134Z,17.41
2018-08-20T04:36:46.198Z,17.39
2018-08-20T04:41:50.999Z,17.56
2018-08-20T04:44:20.991Z,17.58
2018-08-20T04:46:50.178Z,17.62
2018-08-20T04:51:56.881Z,17.72
2018-08-20T04:54:25.935Z,17.76
2018-08-20T04:56:54.985Z,17.80
2018-08-20T04:59:24.058Z,17.85
2018-08-20T05:04:28.879Z,17.95
2018-08-20T05:06:59.893Z,18.04
2018-08-20T05:12:04.738Z,18.18
2018-08-20T05:17:09.596Z,18.39
2018-08-20T05:22:15.342Z,18.45
2018-08-20T05:24:44.654Z,18.55
2018-08-20T05:27:13.706Z,18.57
2018-08-20T05:29:42.781Z,18.57
2018-08-20T05:32:11.894Z,18.60
2018-08-20T05:34:40.937Z,18.62
2018-08-20T05:37:10.001Z,18.68
2018-08-20T05:39:40.056Z,18.74
2018-08-20T05:47:20.694Z,19.09
2018-08-20T05:52:25.569Z,19.32
2018-08-20T05:57:30.553Z,19.55
2018-08-20T05:59:59.593Z,19.60
2018-08-20T06:05:05.452Z,19.85
2018-08-20T06:07:34.505Z,19.96
2018-08-20T06:10:03.623Z,20.11
2018-08-20T06:12:32.676Z,20.25
2018-08-20T06:15:01.743Z,20.39
2018-08-20T06:17:31.786Z,20.61
2018-08-20T06:22:36.704Z,21.03
2018-08-20T06:25:05.729Z,21.22
2018-08-20T06:27:34.773Z,21.37
2018-08-20T06:30:03.830Z,21.45
2018-08-20T06:35:08.698Z,21.65
2018-08-20T06:37:37.762Z,21.77
2018-08-20T06:40:07.069Z,21.78
2018-08-20T06:42:36.113Z,21.83
2018-08-20T06:45:05.164Z,21.92
2018-08-20T06:47:34.229Z,22.00
2018-08-20T06:50:03.277Z,22.08
2018-08-20T06:52:32.374Z,22.16
2018-08-20T06:55:01.383Z,22.29
2018-08-20T06:57:30.465Z,22.28
2018-08-20T06:59:59.503Z,22.45
2018-08-20T07:02:28.556Z,22.66
2018-08-20T07:05:01.218Z,22.64
2018-08-20T07:07:30.273Z,22.64
2018-08-20T07:09:59.329Z,22.73
2018-08-20T07:12:28.397Z,22.83
2018-08-20T07:14:57.591Z,22.95
2018-08-20T07:17:26.711Z,23.10
2018-08-20T07:22:31.530Z,23.52
2018-08-20T07:25:01.525Z,23.68
2018-08-20T07:30:06.394Z,23.90
2018-08-20T07:32:35.460Z,23.97
2018-08-20T07:35:04.636Z,23.77
2018-08-20T07:40:09.546Z,24.30
2018-08-20T07:42:40.588Z,24.39
2018-08-20T07:45:10.582Z,24.42
2018-08-20T07:47:39.641Z,24.41
2018-08-20T07:50:08.696Z,24.39
2018-08-20T07:52:38.025Z,24.45
2018-08-20T07:55:07.081Z,24.55
2018-08-20T08:00:11.961Z,24.85
2018-08-20T08:02:41.984Z,25.01
2018-08-20T08:05:11.030Z,25.00
2018-08-20T08:07:40.081Z,25.14
2018-08-20T08:10:11.127Z,25.47
2018-08-20T08:12:40.217Z,25.88
2018-08-20T08:15:09.257Z,25.91
2018-08-20T08:20:14.074Z,25.49
2018-08-20T08:22:44.142Z,25.93
2018-08-20T08:25:13.169Z,26.03
2018-08-20T08:27:42.227Z,26.19
2018-08-20T08:30:11.356Z,26.56
2018-08-20T08:32:40.413Z,26.91
2018-08-20T08:35:09.451Z,26.96
2018-08-20T08:37:38.516Z,26.73
2018-08-20T08:40:11.885Z,26.21
2018-08-20T08:42:44.933Z,26.85
2018-08-20T08:45:16.855Z,27.15
2018-08-20T08:47:46.232Z,27.15
2018-08-20T08:50:15.270Z,27.42
2018-08-20T08:55:20.093Z,27.42
2018-08-20T09:00:25.343Z,27.87
2018-08-20T09:02:54.363Z,28.78
2018-08-20T09:05:23.429Z,29.72
2018-08-20T09:07:52.474Z,30.78
2018-08-20T09:12:58.281Z,32.42
2018-08-20T09:15:27.345Z,33.71
2018-08-20T09:17:56.512Z,34.51
2018-08-20T09:20:25.592Z,34.56
2018-08-20T09:22:54.641Z,34.94
2018-08-20T09:25:23.685Z,35.52
2018-08-20T09:27:52.732Z,37.00
2018-08-20T09:30:21.857Z,37.54
2018-08-20T09:32:51.901Z,37.58
2018-08-20T09:35:20.980Z,38.79
2018-08-20T09:37:50.029Z,38.65
2018-08-20T09:40:19.101Z,38.42
2018-08-20T09:42:48.164Z,33.61
2018-08-20T09:45:17.561Z,33.12
2018-08-20T09:47:46.622Z,33.47
2018-08-20T09:50:15.673Z,35.26
2018-08-20T09:52:44.821Z,37.53
2018-08-20T09:55:13.886Z,39.06
2018-08-20T09:57:42.999Z,38.73
2018-08-20T10:00:12.523Z,39.21
2018-08-20T10:02:41.581Z,40.07
2018-08-20T10:05:10.642Z,40.44
2018-08-20T10:07:40.693Z,38.39
2018-08-20T10:10:09.761Z,39.73
2018-08-20T10:12:38.819Z,39.14
2018-08-20T10:15:07.875Z,40.36
2018-08-20T10:17:36.924Z,40.42
2018-08-20T10:20:05.993Z,36.35
2018-08-20T10:22:35.042Z,38.70
2018-08-20T10:25:04.123Z,39.80
2018-08-20T10:27:33.327Z,39.75
2018-08-20T10:30:03.350Z,39.30
2018-08-20T10:32:32.411Z,40.14
2018-08-20T10:35:01.486Z,41.33
2018-08-20T10:37:30.610Z,41.97
2018-08-20T10:42:35.329Z,41.81
2018-08-20T10:45:04.391Z,42.60
2018-08-20T10:47:33.444Z,43.56
2018-08-20T10:50:02.571Z,44.44
2018-08-20T10:52:31.579Z,42.56
2018-08-20T10:55:00.630Z,37.89
2018-08-20T10:57:29.702Z,36.16
2018-08-20T10:59:58.755Z,37.21
2018-08-20T11:02:27.849Z,40.29
2018-08-20T11:04:56.890Z,40.07
2018-08-20T11:07:25.954Z,41.10
2018-08-20T11:12:30.790Z,41.13
2018-08-20T11:14:59.840Z,40.63
2018-08-20T11:17:28.984Z,40.79
2018-08-20T11:19:58.035Z,43.14
2018-08-20T11:22:27.090Z,44.06
2018-08-20T11:24:56.145Z,44.57
2018-08-20T11:27:27.646Z,42.98
2018-08-20T11:32:32.373Z,43.54
2018-08-20T11:35:01.699Z,44.07
2018-08-20T11:37:30.753Z,43.38
2018-08-20T11:39:59.827Z,42.71
2018-08-20T11:42:28.931Z,43.90
2018-08-20T11:44:57.988Z,40.85
2018-08-20T11:50:06.292Z,44.91
2018-08-20T11:52:35.435Z,46.53
2018-08-20T11:55:04.461Z,46.05
2018-08-20T11:57:33.522Z,45.70
2018-08-20T12:00:02.780Z,45.85
2018-08-20T12:02:31.828Z,45.46
2018-08-20T12:05:00.892Z,46.85
2018-08-20T12:10:05.638Z,45.29
2018-08-20T12:12:34.695Z,40.52
2018-08-20T12:15:03.758Z,44.84
2018-08-20T12:17:32.829Z,45.15
2018-08-20T12:20:01.877Z,42.04
2018-08-20T12:22:31.979Z,40.92
2018-08-20T12:27:36.722Z,41.32
2018-08-20T12:30:05.795Z,44.54
2018-08-20T12:32:34.854Z,47.22
2018-08-20T12:35:03.901Z,45.30
2018-08-20T12:37:33.109Z,43.24
2018-08-20T12:40:02.256Z,43.79
2018-08-20T12:42:31.214Z,44.96
2018-08-20T12:45:00.508Z,43.42
2018-08-20T12:47:29.597Z,45.73
2018-08-20T12:52:34.359Z,37.82
2018-08-20T12:57:39.131Z,36.28
2018-08-20T13:00:08.229Z,36.40
2018-08-20T13:02:37.326Z,34.82
2018-08-20T13:05:06.398Z,36.66
2018-08-20T13:07:35.465Z,39.98
2018-08-20T13:10:04.558Z,42.08
2018-08-20T13:12:33.615Z,43.53
2018-08-20T13:15:02.681Z,41.68
2018-08-20T13:17:31.724Z,43.94
2018-08-20T13:20:00.796Z,42.39
2018-08-20T13:22:29.970Z,40.70
2018-08-20T13:24:59.084Z,36.86
2018-08-20T13:27:28.122Z,39.02
2018-08-20T13:32:33.050Z,43.10
2018-08-20T13:35:02.420Z,43.48
2018-08-20T13:37:31.529Z,44.70
2018-08-20T13:40:00.585Z,45.70
2018-08-20T13:42:29.766Z,43.75
2018-08-20T13:44:58.840Z,39.92
2018-08-20T13:50:03.730Z,40.55
2018-08-20T13:52:32.783Z,41.72
2018-08-20T13:55:07.025Z,43.05
2018-08-20T13:57:36.077Z,42.77
2018-08-20T14:00:05.197Z,44.65
2018-08-20T14:02:34.298Z,41.81
2018-08-20T14:05:03.345Z,41.10
2018-08-20T14:07:33.333Z,46.00
2018-08-20T14:10:03.364Z,45.55
2018-08-20T14:12:32.502Z,44.10
2018-08-20T14:15:01.541Z,46.23
2018-08-20T14:17:30.606Z,41.76
2018-08-20T14:19:59.664Z,40.89
2018-08-20T14:25:04.507Z,40.52
2018-08-20T14:30:12.361Z,42.09
2018-08-20T14:32:41.438Z,41.21
2018-08-20T14:35:10.493Z,41.61
2018-08-20T14:37:39.580Z,40.25
2018-08-20T14:40:09.662Z,43.28
2018-08-20T14:45:14.423Z,42.87
2018-08-20T14:47:43.557Z,42.21
2018-08-20T14:50:12.579Z,40.81
2018-08-20T14:52:41.929Z,37.33
2018-08-20T14:55:10.989Z,36.53
2018-08-20T14:57:43.666Z,36.90
2018-08-20T15:00:12.714Z,38.83
2018-08-20T15:02:41.791Z,42.82
2018-08-20T15:05:10.907Z,42.80
2018-08-20T15:07:39.970Z,43.21
2018-08-20T15:12:44.839Z,40.34
2018-08-20T15:15:13.994Z,42.00
2018-08-20T15:17:42.932Z,42.50
2018-08-20T15:20:12.006Z,42.48
2018-08-20T15:25:16.922Z,37.95
2018-08-20T15:27:45.969Z,40.12
2018-08-20T15:32:50.923Z,44.42
2018-08-20T15:35:19.956Z,44.88
2018-08-20T15:37:49.061Z,43.00
2018-08-20T15:40:18.281Z,41.08
2018-08-20T15:42:47.335Z,41.25
2018-08-20T15:45:16.409Z,41.66
2018-08-20T15:47:45.491Z,41.95
2018-08-20T15:50:14.545Z,42.40
2018-08-20T15:55:20.484Z,41.60
2018-08-20T15:57:49.558Z,41.15
2018-08-20T16:00:18.622Z,40.53
2018-08-20T16:02:47.722Z,38.92
2018-08-20T16:05:17.813Z,38.50
2018-08-20T16:07:46.857Z,38.18
2018-08-20T16:10:15.905Z,37.97
2018-08-20T16:12:44.976Z,37.82
2018-08-20T16:15:14.025Z,36.81
2018-08-20T16:20:19.401Z,33.80
2018-08-20T16:22:48.453Z,33.00
2018-08-20T16:25:17.504Z,32.91
2018-08-20T16:27:58.987Z,33.49
2018-08-20T16:30:29.529Z,32.99
2018-08-20T16:33:12.873Z,32.44
2018-08-20T16:35:54.490Z,32.07
2018-08-20T16:38:26.086Z,32.04
2018-08-20T16:41:09.920Z,31.40
2018-08-20T16:43:39.621Z,31.03
2018-08-20T16:48:44.540Z,30.08
2018-08-20T16:51:13.598Z,29.82
2018-08-20T16:53:42.734Z,29.64
2018-08-20T16:58:48.844Z,30.31
2018-08-20T17:01:26.250Z,30.30
2018-08-20T17:03:56.639Z,30.14
2018-08-20T17:06:25.887Z,29.35
2018-08-20T17:11:30.717Z,29.60
2018-08-20T17:13:59.820Z,29.46
2018-08-20T17:16:28.972Z,29.08
2018-08-20T17:18:58.000Z,28.63
2018-08-20T17:21:27.073Z,28.61
2018-08-20T17:26:31.982Z,28.40
2018-08-20T17:29:01.263Z,28.66
2018-08-20T17:31:30.398Z,28.43
2018-08-20T17:36:35.233Z,28.01
2018-08-20T17:39:04.297Z,27.79
2018-08-20T17:41:33.341Z,27.62
2018-08-20T17:44:02.506Z,27.50
2018-08-20T17:46:31.598Z,27.37
2018-08-20T17:49:01.177Z,27.20
2018-08-20T17:51:30.318Z,26.92
2018-08-20T17:53:59.353Z,27.08
2018-08-20T17:56:28.400Z,26.75
2018-08-20T18:04:10.538Z,26.48
2018-08-20T18:06:41.593Z,26.17
2018-08-20T18:09:10.636Z,25.92
2018-08-20T18:14:15.471Z,25.63
2018-08-20T18:16:44.505Z,25.40
2018-08-20T18:19:14.549Z,25.08
2018-08-20T18:24:19.443Z,24.84
2018-08-20T18:26:48.504Z,24.82
2018-08-20T18:31:53.412Z,24.43
2018-08-20T18:34:22.453Z,24.15
2018-08-20T18:39:27.350Z,24.03
2018-08-20T18:41:56.403Z,24.01
2018-08-20T18:44:25.461Z,23.69
2018-08-20T18:46:54.534Z,23.41
2018-08-20T18:49:23.673Z,23.43
2018-08-20T18:51:52.706Z,23.30
2018-08-20T18:56:57.591Z,23.13
2018-08-20T19:02:02.342Z,23.21
2018-08-20T19:04:31.389Z,23.11
2018-08-20T19:07:00.589Z,23.07
2018-08-20T19:09:31.541Z,22.96
2018-08-20T19:12:00.597Z,22.92
2018-08-20T19:14:29.731Z,22.93
2018-08-20T19:16:58.830Z,23.08
2018-08-20T19:22:03.633Z,23.18
2018-08-20T19:24:32.670Z,23.11
2018-08-20T19:29:37.472Z,23.22
2018-08-20T19:32:06.560Z,23.18
2018-08-20T19:37:11.422Z,22.41
2018-08-20T19:39:40.510Z,22.43
2018-08-20T19:42:09.556Z,22.29
2018-08-20T19:44:38.624Z,22.01
2018-08-20T19:49:43.373Z,22.19
2018-08-20T19:52:12.461Z,22.19
2018-08-20T19:54:42.457Z,22.01
2018-08-20T19:57:11.501Z,21.86
2018-08-20T19:59:40.554Z,21.70
2018-08-20T20:04:46.589Z,21.72
2018-08-20T20:07:15.663Z,21.56
2018-08-20T20:09:44.739Z,21.47
2018-08-20T20:12:13.836Z,21.35
2018-08-20T20:14:42.832Z,21.26
2018-08-20T20:17:11.893Z,21.19
2018-08-20T20:19:40.961Z,21.18
2018-08-20T20:22:11.994Z,21.16
2018-08-20T20:24:43.001Z,21.20
2018-08-20T20:27:14.341Z,21.13
2018-08-20T20:32:24.266Z,21.10
2018-08-20T20:34:55.065Z,20.91
2018-08-20T20:37:26.197Z,20.80
2018-08-20T20:39:55.918Z,20.65
2018-08-20T20:42:26.606Z,20.57
2018-08-20T20:44:57.055Z,20.65
2018-08-20T20:47:27.663Z,20.48
2018-08-20T20:52:34.055Z,20.43
2018-08-20T20:55:04.987Z,20.34
2018-08-20T21:02:48.001Z,20.39
2018-08-20T21:05:18.947Z,20.25
2018-08-20T21:07:50.302Z,20.18
2018-08-20T21:10:20.795Z,19.83
2018-08-20T21:12:50.568Z,19.69
2018-08-20T21:15:20.190Z,19.51
2018-08-20T21:17:50.231Z,19.57
2018-08-20T21:20:19.829Z,19.73
2018-08-20T21:22:49.476Z,19.78
2018-08-20T21:25:20.199Z,19.76
2018-08-20T21:27:49.954Z,19.83
2018-08-20T21:30:19.208Z,19.91
2018-08-20T21:32:48.459Z,19.71
2018-08-20T21:35:18.377Z,19.59
2018-08-20T21:37:49.932Z,19.51
2018-08-20T21:40:19.446Z,19.39
2018-08-20T21:42:50.698Z,19.29
2018-08-20T21:45:21.148Z,19.23
2018-08-20T21:47:52.778Z,19.27
2018-08-20T21:50:21.901Z,19.33
2018-08-20T21:52:50.944Z,19.33
2018-08-20T21:55:20.038Z,19.26
2018-08-20T21:57:50.200Z,19.11
2018-08-20T22:00:19.302Z,19.15
2018-08-20T22:08:01.974Z,19.23
2018-08-20T22:10:31.040Z,19.08
2018-08-20T22:13:00.077Z,18.98
2018-08-20T22:15:29.162Z,19.03
2018-08-20T22:20:33.938Z,18.97
2018-08-20T22:25:38.780Z,18.89
2018-08-20T22:28:07.828Z,18.80
2018-08-20T22:30:36.888Z,18.72
2018-08-20T22:33:06.025Z,18.80
2018-08-20T22:35:35.253Z,18.71
2018-08-20T22:40:40.037Z,18.72
2018-08-20T22:43:10.029Z,18.75
2018-08-20T22:45:39.256Z,18.61
2018-08-20T22:48:08.324Z,18.53
2018-08-20T22:50:37.405Z,18.49
2018-08-20T22:53:06.485Z,18.45
2018-08-20T22:55:35.551Z,18.50
2018-08-20T22:58:05.551Z,18.49
2018-08-20T23:00:34.616Z,18.44
2018-08-20T23:03:03.704Z,18.45
2018-08-20T23:05:32.756Z,18.40
2018-08-20T23:08:01.818Z,18.37
2018-08-20T23:10:30.887Z,18.30
2018-08-20T23:12:59.913Z,18.26
2018-08-20T23:15:28.958Z,18.27
2018-08-20T23:17:59.914Z,18.39
2018-08-20T23:20:28.953Z,18.29
2018-08-20T23:22:58.107Z,18.10
2018-08-20T23:25:27.140Z,17.88
2018-08-20T23:27:56.244Z,17.73
2018-08-20T23:30:25.286Z,17.83
2018-08-20T23:32:54.353Z,17.74
2018-08-20T23:35:23.425Z,17.74
2018-08-20T23:37:52.612Z,17.93
2018-08-20T23:40:21.677Z,17.85
2018-08-20T23:45:26.490Z,17.94
2018-08-20T23:47:55.679Z,18.10
2018-08-20T23:50:24.738Z,18.25
2018-08-20T23:52:53.893Z,18.08
2018-08-20T23:55:22.917Z,18.09
2018-08-20T23:57:53.031Z,18.19
